TimeEST,TemperatureF,Dew PointF,Humidity,Sea Level PressureIn,VisibilityMPH,Wind Direction,Wind SpeedMPH,Gust SpeedMPH,PrecipitationIn,Events,Conditions,WindDirDegrees,DateUTC
12:54 AM,41.0,37.9,89,29.80,10.0,Calm,Calm,-,N/A,,Overcast,0,2013-11-03 04:54:00
1:54 AM,48.0,41.0,77,29.82,10.0,NW,3.5,-,N/A,,Overcast,320,2013-11-03 05:54:00
1:54 AM,45.0,39.9,82,29.86,10.0,NNE,10.4,-,N/A,,Overcast,20,2013-11-03 06:54:00
2:54 AM,43.0,36.0,76,29.89,10.0,NNE,17.3,23.0,N/A,,Overcast,30,2013-11-03 07:54:00
3:04 AM,42.8,35.6,76,29.89,10.0,NE,16.1,24.2,N/A,,Overcast,40,2013-11-03 08:04:00
3:54 AM,42.1,35.1,76,29.93,10.0,NNE,8.1,-,N/A,,Overcast,30,2013-11-03 08:54:00
4:54 AM,42.1,36.0,79,29.96,10.0,North,3.5,-,0.00,,Overcast,360,2013-11-03 09:54:00
5:16 AM,42.8,35.6,76,29.96,10.0,NNE,3.5,-,N/A,,Overcast,30,2013-11-03 10:16:00
5:54 AM,42.1,35.1,76,29.99,10.0,NNE,5.8,-,N/A,,Overcast,20,2013-11-03 10:54:00
6:54 AM,41.0,32.0,70,30.04,10.0,NNE,13.8,-,N/A,,Overcast,30,2013-11-03 11:54:00
7:54 AM,39.9,30.9,70,30.09,10.0,NNE,12.7,-,N/A,,Overcast,20,2013-11-03 12:54:00
8:01 AM,39.2,30.2,70,30.09,10.0,NNE,12.7,-,N/A,,Overcast,30,2013-11-03 13:01:00
8:54 AM,39.9,30.9,70,30.12,10.0,NE,9.2,-,N/A,,Overcast,40,2013-11-03 13:54:00
9:54 AM,41.0,32.0,70,30.14,10.0,NE,6.9,-,N/A,,Overcast,50,2013-11-03 14:54:00
10:54 AM,43.0,33.1,68,30.17,10.0,NNE,3.5,-,N/A,,Overcast,30,2013-11-03 15:54:00
11:54 AM,45.0,32.0,60,30.16,10.0,Variable,3.5,-,N/A,,Mostly Cloudy,0,2013-11-03 16:54:00
12:54 PM,45.0,30.9,58,30.17,10.0,NNW,10.4,17.3,N/A,,Overcast,330,2013-11-03 17:54:00
1:54 PM,43.0,28.0,56,30.20,10.0,NW,15.0,21.9,N/A,,Overcast,320,2013-11-03 18:54:00
2:54 PM,41.0,26.1,55,30.24,10.0,NW,16.1,21.9,N/A,,Overcast,320,2013-11-03 19:54:00
3:54 PM,39.0,24.1,55,30.27,10.0,NNW,12.7,-,N/A,,Overcast,340,2013-11-03 20:54:00
4:54 PM,39.0,23.0,53,30.30,10.0,NNW,11.5,-,N/A,,Overcast,330,2013-11-03 21:54:00
5:54 PM,37.9,21.9,53,30.33,10.0,NW,6.9,-,N/A,,Overcast,320,2013-11-03 22:54:00
6:54 PM,36.0,21.0,55,30.35,10.0,NW,8.1,-,N/A,,Mostly Cloudy,320,2013-11-03 23:54:00
7:54 PM,35.1,19.9,54,30.37,10.0,NNW,6.9,-,N/A,,Clear,330,2013-11-04 00:54:00
8:54 PM,33.1,19.0,56,30.40,10.0,NNW,5.8,-,N/A,,Clear,330,2013-11-04 01:54:00
9:54 PM,30.9,19.9,64,30.43,10.0,North,3.5,-,N/A,,Clear,10,2013-11-04 02:54:00
10:54 PM,27.0,21.0,78,30.45,10.0,Calm,Calm,-,N/A,,Clear,0,2013-11-04 03:54:00